createdAt,value
2022-10-09T00:00:55.131Z,1017.4
2022-10-09T00:03:55.142Z,1017.2
2022-10-09T00:06:55.167Z,1017.3
2022-10-09T00:09:55.168Z,1017.3
2022-10-09T00:12:55.162Z,1017.4
2022-10-09T00:15:55.172Z,1017.3
2022-10-09T00:18:55.182Z,1017.4
2022-10-09T00:21:55.190Z,1017.4
2022-10-09T00:24:55.229Z,1017.4
2022-10-09T00:27:55.210Z,1017.5
2022-10-09T00:30:55.266Z,1017.3
2022-10-09T00:33:55.225Z,1017.5
2022-10-09T00:36:55.242Z,1017.4
2022-10-09T00:39:55.247Z,1017.5
2022-10-09T00:42:55.278Z,1017.5
2022-10-09T00:45:55.287Z,1017.5
2022-10-09T00:48:55.272Z,1017.5
2022-10-09T00:51:55.272Z,1017.5
2022-10-09T00:54:55.294Z,1017.6
2022-10-09T00:57:55.292Z,1017.6
2022-10-09T01:00:55.352Z,1017.6
2022-10-09T01:03:55.322Z,1017.7
2022-10-09T01:06:55.331Z,1017.7
2022-10-09T01:09:55.351Z,1017.7
2022-10-09T01:12:55.351Z,1017.8
2022-10-09T01:15:55.401Z,1017.7
2022-10-09T01:18:55.391Z,1017.8
2022-10-09T01:21:55.378Z,1017.7
2022-10-09T01:24:55.400Z,1017.7
2022-10-09T01:27:55.401Z,1017.6
2022-10-09T01:30:55.442Z,1017.7
2022-10-09T01:33:55.421Z,1017.6
2022-10-09T01:36:55.456Z,1017.6
2022-10-09T01:39:55.442Z,1017.5
2022-10-09T01:42:55.446Z,1017.5
2022-10-09T01:45:55.476Z,1017.5
2022-10-09T01:48:55.473Z,1017.5
2022-10-09T01:51:55.482Z,1017.5
2022-10-09T01:54:55.542Z,1017.6
2022-10-09T01:57:55.502Z,1017.7
2022-10-09T02:00:55.520Z,1017.7
2022-10-09T02:03:55.528Z,1017.7
2022-10-09T02:06:55.530Z,1017.7
2022-10-09T02:09:55.551Z,1017.6
2022-10-09T02:12:55.583Z,1017.6
2022-10-09T02:15:55.606Z,1017.7
2022-10-09T02:18:55.588Z,1017.7
2022-10-09T02:21:55.610Z,1017.7
2022-10-09T02:24:55.620Z,1017.8
2022-10-09T02:27:55.606Z,1017.7
2022-10-09T02:30:55.677Z,1017.7
2022-10-09T02:33:55.606Z,1017.7
2022-10-09T02:36:55.611Z,1017.7
2022-10-09T02:39:55.629Z,1017.8
2022-10-09T02:42:55.611Z,1017.8
2022-10-09T02:45:55.615Z,1017.8
2022-10-09T02:48:55.635Z,1017.7
2022-10-09T02:51:55.610Z,1017.8
2022-10-09T02:54:55.637Z,1017.8
2022-10-09T02:57:55.612Z,1017.7
2022-10-09T03:00:55.619Z,1017.7
2022-10-09T03:03:55.620Z,1017.7
2022-10-09T03:06:55.642Z,1017.7
2022-10-09T03:09:55.631Z,1017.7
2022-10-09T03:12:55.622Z,1017.8
2022-10-09T03:15:55.692Z,1017.7
2022-10-09T03:18:55.635Z,1017.6
2022-10-09T03:21:55.624Z,1017.6
2022-10-09T03:24:55.849Z,1017.6
2022-10-09T03:27:55.634Z,1017.7
2022-10-09T03:30:55.694Z,1017.8
2022-10-09T03:33:55.641Z,1017.7
2022-10-09T03:36:55.645Z,1017.8
2022-10-09T03:39:55.650Z,1017.8
2022-10-09T03:42:55.666Z,1017.8
2022-10-09T03:45:58.250Z,1017.8
2022-10-09T03:48:55.643Z,1017.8
2022-10-09T03:51:55.650Z,1017.9
2022-10-09T03:54:55.670Z,1017.9
2022-10-09T03:57:55.651Z,1017.9
2022-10-09T04:00:55.727Z,1018
2022-10-09T04:03:55.653Z,1018
2022-10-09T04:06:55.653Z,1018
2022-10-09T04:09:55.683Z,1018
2022-10-09T04:12:55.655Z,1018
2022-10-09T04:15:55.692Z,1018.1
2022-10-09T04:18:55.691Z,1018.2
2022-10-09T04:21:55.671Z,1018.1
2022-10-09T04:24:55.697Z,1018.1
2022-10-09T04:27:55.676Z,1018.2
2022-10-09T04:30:55.702Z,1018.1
2022-10-09T04:33:55.687Z,1018
2022-10-09T04:36:55.712Z,1018
2022-10-09T04:39:55.709Z,1018
2022-10-09T04:42:55.700Z,1018
2022-10-09T04:45:55.790Z,1018.1
2022-10-09T04:48:55.699Z,1018.2
2022-10-09T04:51:55.706Z,1018.2
2022-10-09T04:54:55.894Z,1018.3
2022-10-09T04:57:55.715Z,1018.2
2022-10-09T05:00:55.773Z,1018.3
2022-10-09T05:03:55.715Z,1018.2
2022-10-09T05:06:55.716Z,1018.3
2022-10-09T05:09:55.733Z,1018.3
2022-10-09T05:12:55.752Z,1018.3
2022-10-09T05:15:55.738Z,1018.3
2022-10-09T05:18:55.743Z,1018.3
2022-10-09T05:21:55.747Z,1018.3
2022-10-09T05:24:55.756Z,1018.3
2022-10-09T05:27:55.753Z,1018.4
2022-10-09T05:30:55.783Z,1018.3
2022-10-09T05:33:55.762Z,1018.4
2022-10-09T05:36:55.764Z,1018.4
2022-10-09T05:39:55.778Z,1018.3
2022-10-09T05:42:55.778Z,1018.4
2022-10-09T05:45:55.825Z,1018.5
2022-10-09T05:48:55.819Z,1018.5
2022-10-09T05:51:55.799Z,1018.5
2022-10-09T05:54:55.819Z,1018.5
2022-10-09T05:57:55.804Z,1018.4
2022-10-09T06:00:55.863Z,1018.4
2022-10-09T06:03:55.813Z,1018.5
2022-10-09T06:06:55.835Z,1018.5
2022-10-09T06:09:55.834Z,1018.6
2022-10-09T06:12:55.821Z,1018.6
2022-10-09T06:15:55.822Z,1018.6
2022-10-09T06:18:55.829Z,1018.5
2022-10-09T06:21:55.826Z,1018.5
2022-10-09T06:24:55.885Z,1018.6
2022-10-09T06:27:55.831Z,1018.6
2022-10-09T06:30:55.863Z,1018.6
2022-10-09T06:33:55.838Z,1018.7
2022-10-09T06:36:55.842Z,1018.7
2022-10-09T06:39:55.847Z,1018.6
2022-10-09T06:42:55.856Z,1018.7
2022-10-09T06:45:55.846Z,1018.7
2022-10-09T06:48:55.830Z,1018.7
2022-10-09T06:51:55.842Z,1018.8
2022-10-09T06:54:55.872Z,1018.8
2022-10-09T06:57:55.849Z,1018.7
2022-10-09T07:00:55.870Z,1018.8
2022-10-09T07:03:55.860Z,1018.8
2022-10-09T07:06:55.855Z,1018.8
2022-10-09T07:09:55.867Z,1018.8
2022-10-09T07:12:55.864Z,1018.9
2022-10-09T07:15:55.969Z,1018.9
2022-10-09T07:18:55.908Z,1019
2022-10-09T07:21:55.886Z,1018.9
2022-10-09T07:24:55.900Z,1018.9
2022-10-09T07:27:55.903Z,1018.9
2022-10-09T07:30:55.960Z,1018.9
2022-10-09T07:33:55.924Z,1018.9
2022-10-09T07:36:55.944Z,1019
2022-10-09T07:39:55.945Z,1019
2022-10-09T07:42:55.940Z,1019
2022-10-09T07:45:56.008Z,1019
2022-10-09T07:48:55.955Z,1019
2022-10-09T07:51:55.965Z,1019
2022-10-09T07:54:56.019Z,1018.9
2022-10-09T07:57:55.980Z,1019
2022-10-09T08:00:55.987Z,1019
2022-10-09T08:03:56.000Z,1019
2022-10-09T08:06:56.012Z,1019
2022-10-09T08:09:56.030Z,1019.1
2022-10-09T08:12:56.047Z,1019
2022-10-09T08:15:56.171Z,1019
2022-10-09T08:18:56.041Z,1019.1
2022-10-09T08:21:58.128Z,1019.1
2022-10-09T08:24:56.070Z,1019.1
2022-10-09T08:27:56.070Z,1019.1
2022-10-09T08:30:56.144Z,1019.2
2022-10-09T08:33:56.078Z,1019.2
2022-10-09T08:36:56.092Z,1019.1
2022-10-09T08:39:56.114Z,1019
2022-10-09T08:42:56.114Z,1019
2022-10-09T08:45:56.163Z,1019.1
2022-10-09T08:48:56.163Z,1019.1
2022-10-09T08:51:56.148Z,1019
2022-10-09T08:54:56.171Z,1019
2022-10-09T08:57:56.169Z,1018.9
2022-10-09T09:00:56.171Z,1019
2022-10-09T09:03:56.183Z,1018.9
2022-10-09T09:06:56.213Z,1018.9
2022-10-09T09:09:56.211Z,1018.8
2022-10-09T09:12:56.222Z,1018.8
2022-10-09T09:15:56.245Z,1018.8
2022-10-09T09:18:56.231Z,1018.7
2022-10-09T09:21:56.248Z,1018.8
2022-10-09T09:24:56.319Z,1018.8
2022-10-09T09:27:56.267Z,1018.8
2022-10-09T09:30:56.313Z,1018.8
2022-10-09T09:33:56.293Z,1018.8
2022-10-09T09:36:56.301Z,1018.8
2022-10-09T09:42:56.346Z,1018.7
2022-10-09T09:45:56.338Z,1018.6
2022-10-09T09:48:56.346Z,1018.6
2022-10-09T09:51:56.364Z,1018.6
2022-10-09T09:54:56.393Z,1018.4
2022-10-09T09:57:56.382Z,1018.5
2022-10-09T10:00:56.484Z,1018.5
2022-10-09T10:03:56.401Z,1018.5
2022-10-09T10:06:56.423Z,1018.5
2022-10-09T10:09:56.447Z,1018.4
2022-10-09T10:12:56.444Z,1018.5
2022-10-09T10:15:56.489Z,1018.4
2022-10-09T10:18:56.550Z,1018.4
2022-10-09T10:21:56.491Z,1018.3
2022-10-09T10:24:56.517Z,1018.3
2022-10-09T10:27:56.519Z,1018.3
2022-10-09T10:30:56.536Z,1018.2
2022-10-09T10:33:56.550Z,1018.2
2022-10-09T10:36:59.677Z,1018.2
2022-10-09T10:39:56.587Z,1018.1
2022-10-09T10:42:58.691Z,1018.1
2022-10-09T10:45:56.604Z,1018.1
2022-10-09T10:48:56.619Z,1018.1
2022-10-09T10:51:56.633Z,1018
2022-10-09T10:54:56.669Z,1018
2022-10-09T10:57:56.662Z,1018
2022-10-09T11:00:56.709Z,1017.9
2022-10-09T11:03:56.698Z,1017.9
2022-10-09T11:06:56.711Z,1017.9
2022-10-09T11:09:56.717Z,1017.7
2022-10-09T11:12:56.764Z,1017.8
2022-10-09T11:15:56.819Z,1017.8
2022-10-09T11:18:56.773Z,1017.7
2022-10-09T11:21:56.785Z,1017.7
2022-10-09T11:24:56.799Z,1017.7
2022-10-09T11:27:56.806Z,1017.7
2022-10-09T11:30:56.852Z,1017.7
2022-10-09T11:33:56.847Z,1017.6
2022-10-09T11:36:56.867Z,1017.6
2022-10-09T11:39:56.880Z,1017.6
2022-10-09T11:42:56.896Z,1017.6
2022-10-09T11:45:56.982Z,1017.5
2022-10-09T11:48:56.956Z,1017.5
2022-10-09T11:51:56.946Z,1017.5
2022-10-09T11:54:56.968Z,1017.5
2022-10-09T11:57:56.977Z,1017.4
2022-10-09T12:00:57.083Z,1017.3
2022-10-09T12:04:00.522Z,1017.2
2022-10-09T12:06:57.081Z,1017.3
2022-10-09T12:09:57.056Z,1017.2
2022-10-09T12:12:57.069Z,1017.1
2022-10-09T12:15:57.090Z,1017.1
2022-10-09T12:18:57.102Z,1017
2022-10-09T12:21:57.121Z,1017
2022-10-09T12:24:57.165Z,1017
2022-10-09T12:27:57.168Z,1016.9
2022-10-09T12:30:57.241Z,1016.8
2022-10-09T12:33:57.193Z,1016.8
2022-10-09T12:36:57.213Z,1016.7
2022-10-09T12:39:57.228Z,1016.7
2022-10-09T12:42:57.320Z,1016.6
2022-10-09T12:45:57.361Z,1016.7
2022-10-09T12:48:57.283Z,1016.7
2022-10-09T12:51:57.304Z,1016.6
2022-10-09T12:54:57.323Z,1016.5
2022-10-09T12:57:57.334Z,1016.5
2022-10-09T13:00:57.458Z,1016.5
2022-10-09T13:03:57.360Z,1016.4
2022-10-09T13:06:57.382Z,1016.4
2022-10-09T13:09:57.390Z,1016.3
2022-10-09T13:12:57.396Z,1016.3
2022-10-09T13:15:57.409Z,1016.3
2022-10-09T13:18:57.456Z,1016.1
2022-10-09T13:21:57.452Z,1016.3
2022-10-09T13:24:57.464Z,1016.2
2022-10-09T13:27:57.481Z,1016.1
2022-10-09T13:30:57.527Z,1016.1
2022-10-09T13:33:57.514Z,1016
2022-10-09T13:36:57.566Z,1016
2022-10-09T13:39:57.558Z,1015.9
2022-10-09T13:42:57.567Z,1015.9
2022-10-09T13:45:57.617Z,1015.9
2022-10-09T13:48:57.591Z,1015.9
2022-10-09T13:51:57.609Z,1015.7
2022-10-09T13:54:57.659Z,1015.7
2022-10-09T13:57:57.651Z,1015.7
2022-10-09T14:00:57.666Z,1015.8
2022-10-09T14:03:57.676Z,1015.8
2022-10-09T14:06:57.690Z,1015.7
2022-10-09T14:09:57.705Z,1015.7
2022-10-09T14:12:57.748Z,1015.6
2022-10-09T14:15:57.740Z,1015.6
2022-10-09T14:18:57.757Z,1015.5
2022-10-09T14:21:57.783Z,1015.5
2022-10-09T14:24:57.804Z,1015.4
2022-10-09T14:27:57.826Z,1015.4
2022-10-09T14:30:57.863Z,1015.4
2022-10-09T14:33:57.863Z,1015.3
2022-10-09T14:36:57.869Z,1015.3
2022-10-09T14:39:57.877Z,1015.3
2022-10-09T14:42:57.902Z,1015.2
2022-10-09T14:45:57.925Z,1015.2
2022-10-09T14:48:57.974Z,1015.1
2022-10-09T14:51:57.952Z,1015.1
2022-10-09T14:54:57.964Z,1015.1
2022-10-09T14:57:57.972Z,1015
2022-10-09T15:00:57.987Z,1015
2022-10-09T15:03:58.010Z,1014.9
2022-10-09T15:06:58.032Z,1014.9
2022-10-09T15:09:58.020Z,1014.8
2022-10-09T15:12:58.034Z,1014.8
2022-10-09T15:15:58.043Z,1014.8
2022-10-09T15:18:58.052Z,1014.7
2022-10-09T15:21:58.068Z,1014.7
2022-10-09T15:24:58.097Z,1014.7
2022-10-09T15:27:58.385Z,1014.7
2022-10-09T15:30:58.083Z,1014.6
2022-10-09T15:33:58.095Z,1014.6
2022-10-09T15:36:58.104Z,1014.6
2022-10-09T15:39:58.126Z,1014.6
2022-10-09T15:42:58.157Z,1014.5
2022-10-09T15:45:58.145Z,1014.5
2022-10-09T15:48:58.154Z,1014.4
2022-10-09T15:51:58.174Z,1014.4
2022-10-09T15:54:58.188Z,1014.4
2022-10-09T15:57:58.198Z,1014.4
2022-10-09T16:00:58.235Z,1014.4
2022-10-09T16:03:58.230Z,1014.4
2022-10-09T16:06:58.235Z,1014.4
2022-10-09T16:09:58.256Z,1014.4
2022-10-09T16:12:58.259Z,1014.4
2022-10-09T16:15:58.269Z,1014.3
2022-10-09T16:18:58.300Z,1014.3
2022-10-09T16:21:58.283Z,1014.4
2022-10-09T16:24:58.285Z,1014.3
2022-10-09T16:27:58.301Z,1014.3
2022-10-09T16:30:58.316Z,1014.3
2022-10-09T16:33:58.337Z,1014.3
2022-10-09T16:36:58.365Z,1014.3
2022-10-09T16:39:58.348Z,1014.4
2022-10-09T16:42:58.366Z,1014.4
2022-10-09T16:45:58.377Z,1014.3
2022-10-09T16:48:58.388Z,1014.3
2022-10-09T16:51:58.401Z,1014.3
2022-10-09T16:55:00.503Z,1014.3
2022-10-09T16:57:58.428Z,1014.3
2022-10-09T17:00:58.491Z,1014.3
2022-10-09T17:03:58.451Z,1014.3
2022-10-09T17:06:58.458Z,1014.2
2022-10-09T17:09:58.467Z,1014.2
2022-10-09T17:12:58.490Z,1014.2
2022-10-09T17:15:58.476Z,1014.2
2022-10-09T17:18:58.492Z,1014.2
2022-10-09T17:21:58.514Z,1014.2
2022-10-09T17:24:58.520Z,1014.2
2022-10-09T17:27:58.539Z,1014.2
2022-10-09T17:30:58.569Z,1014.2
2022-10-09T17:33:58.557Z,1014.2
2022-10-09T17:36:58.570Z,1014.2
2022-10-09T17:39:58.579Z,1014.2
2022-10-09T17:42:58.603Z,1014.2
2022-10-09T17:45:58.617Z,1014.2
2022-10-09T17:48:58.649Z,1014.2
2022-10-09T17:51:58.639Z,1014.2
2022-10-09T17:54:58.655Z,1014.2
2022-10-09T17:57:58.671Z,1014.2
2022-10-09T18:00:58.706Z,1014.2
2022-10-09T18:03:58.695Z,1014.1
2022-10-09T18:06:58.772Z,1014.1
2022-10-09T18:09:58.712Z,1014.1
2022-10-09T18:12:58.718Z,1014.1
2022-10-09T18:15:58.732Z,1014.1
2022-10-09T18:18:58.753Z,1014.1
2022-10-09T18:21:58.758Z,1014
2022-10-09T18:24:58.796Z,1014
2022-10-09T18:27:58.781Z,1014
2022-10-09T18:30:58.799Z,1013.8
2022-10-09T18:33:58.814Z,1013.9
2022-10-09T18:36:58.825Z,1013.9
2022-10-09T18:39:58.838Z,1013.9
2022-10-09T18:42:58.880Z,1013.9
2022-10-09T18:45:58.864Z,1014
2022-10-09T18:48:58.875Z,1013.9
2022-10-09T18:51:58.895Z,1013.9
2022-10-09T18:54:58.895Z,1013.9
2022-10-09T18:57:58.901Z,1013.9
2022-10-09T19:00:59.024Z,1013.8
2022-10-09T19:03:58.928Z,1013.8
2022-10-09T19:06:58.943Z,1013.8
2022-10-09T19:09:58.962Z,1013.8
2022-10-09T19:12:58.968Z,1013.8
2022-10-09T19:15:58.982Z,1013.8
2022-10-09T19:18:59.090Z,1013.8
2022-10-09T19:21:59.000Z,1013.7
2022-10-09T19:24:59.018Z,1013.8
2022-10-09T19:27:59.039Z,1013.7
2022-10-09T19:30:59.047Z,1013.7
2022-10-09T19:33:59.059Z,1013.6
2022-10-09T19:36:59.171Z,1013.6
2022-10-09T19:39:59.086Z,1013.6
2022-10-09T19:42:59.095Z,1013.6
2022-10-09T19:45:59.109Z,1013.6
2022-10-09T19:48:59.118Z,1013.6
2022-10-09T19:51:59.128Z,1013.5
2022-10-09T19:54:59.164Z,1013.5
2022-10-09T19:57:59.156Z,1013.4
2022-10-09T20:00:59.201Z,1013.5
2022-10-09T20:03:59.173Z,1013.4
2022-10-09T20:06:59.189Z,1013.4
2022-10-09T20:09:59.195Z,1013.3
2022-10-09T20:12:59.228Z,1013.2
2022-10-09T20:15:59.222Z,1013.3
2022-10-09T20:18:59.230Z,1013.2
2022-10-09T20:21:59.246Z,1013.2
2022-10-09T20:24:59.262Z,1013.3
2022-10-09T20:27:59.277Z,1013.2
2022-10-09T20:30:59.311Z,1013.2
2022-10-09T20:33:59.304Z,1013.2
2022-10-09T20:36:59.312Z,1013
2022-10-09T20:39:59.322Z,1013.1
2022-10-09T20:42:59.326Z,1013
2022-10-09T20:45:59.338Z,1013
2022-10-09T20:48:59.379Z,1013
2022-10-09T20:51:59.370Z,1012.9
2022-10-09T20:54:59.378Z,1012.9
2022-10-09T20:57:59.394Z,1012.9
2022-10-09T21:00:59.433Z,1012.8
2022-10-09T21:03:59.494Z,1012.8
2022-10-09T21:06:59.463Z,1012.8
2022-10-09T21:09:59.453Z,1012.7
2022-10-09T21:12:59.457Z,1012.7
2022-10-09T21:15:59.479Z,1012.7
2022-10-09T21:18:59.483Z,1012.7
2022-10-09T21:21:59.498Z,1012.7
2022-10-09T21:24:59.544Z,1012.6
2022-10-09T21:27:59.527Z,1012.7
2022-10-09T21:30:59.536Z,1012.6
2022-10-09T21:33:59.547Z,1012.6
2022-10-09T21:37:20.262Z,1012.6
2022-10-09T21:39:59.562Z,1012.5
2022-10-09T21:42:59.624Z,1012.4
2022-10-09T21:45:59.603Z,1012.4
2022-10-09T21:49:01.495Z,1012.4
2022-10-09T21:51:59.617Z,1012.5
2022-10-09T21:54:59.643Z,1012.4
2022-10-09T21:57:59.640Z,1012.4
2022-10-09T22:00:59.693Z,1012.4
2022-10-09T22:03:59.669Z,1012.3
2022-10-09T22:06:59.688Z,1012.4
2022-10-09T22:09:59.692Z,1012.3
2022-10-09T22:12:59.709Z,1012.3
2022-10-09T22:15:59.721Z,1012.2
2022-10-09T22:18:59.759Z,1012.2
2022-10-09T22:21:59.743Z,1012.2
2022-10-09T22:24:59.749Z,1012.2
2022-10-09T22:27:59.761Z,1012.1
2022-10-09T22:30:59.773Z,1012.1
2022-10-09T22:33:59.791Z,1012.1
2022-10-09T22:36:59.832Z,1012.1
2022-10-09T22:39:59.819Z,1011.9
2022-10-09T22:42:59.824Z,1012
2022-10-09T22:45:59.830Z,1012
2022-10-09T22:48:59.849Z,1012
2022-10-09T22:51:59.865Z,1011.9
2022-10-09T22:54:59.911Z,1011.9
2022-10-09T22:57:59.908Z,1011.9
2022-10-09T23:00:59.916Z,1011.9
2022-10-09T23:03:59.936Z,1011.8
2022-10-09T23:06:59.939Z,1011.8
2022-10-09T23:09:59.958Z,1011.8
2022-10-09T23:12:59.994Z,1011.8
2022-10-09T23:15:59.976Z,1011.8
2022-10-09T23:19:03.058Z,1011.5
2022-10-09T23:22:00.006Z,1011.6
2022-10-09T23:25:00.019Z,1011.6
2022-10-09T23:28:00.025Z,1011.6
2022-10-09T23:31:00.086Z,1011.6
2022-10-09T23:34:00.058Z,1011.5
2022-10-09T23:37:00.059Z,1011.5
2022-10-09T23:40:00.097Z,1011.5
2022-10-09T23:43:00.083Z,1011.5
2022-10-09T23:46:00.091Z,1011.4
2022-10-09T23:49:00.135Z,1011.4
2022-10-09T23:52:00.126Z,1011.4
2022-10-09T23:55:00.131Z,1011.4
2022-10-09T23:58:00.140Z,1011.3
